Date,TemperatureHighF,TemperatureAvgF,TemperatureLowF,DewpointHighF,DewpointAvgF,DewpointLowF,HumidityHigh,HumidityAvg,HumidityLow,PressureMaxIn,PressureMinIn,WindSpeedMaxMPH,WindSpeedAvgMPH,GustSpeedMaxMPH,PrecipitationSumIn
2013-3-1,40.0,36.8,35.0,34.0,31.5,29.0,91,81,70,29.66,29.52,6,1,0,0.00
2013-3-2,42.0,36.8,30.0,33.0,28.8,26.0,85,73,64,29.65,29.60,6,1,0,0.00
2013-3-3,41.0,35.7,32.0,33.0,29.6,27.0,86,78,71,29.62,29.54,5,2,0,0.00
2013-3-4,39.0,34.0,31.0,29.0,25.1,23.0,88,70,56,29.70,29.54,13,4,0,0.00
2013-3-5,42.0,35.7,31.0,34.0,28.5,23.0,92,75,64,30.06,29.70,9,2,0,0.00
2013-3-6,40.0,37.2,33.0,36.0,33.0,29.0,94,85,72,30.11,30.03,8,3,0,0.00
2013-3-7,37.0,33.1,31.0,32.0,30.6,29.0,96,91,74,30.07,29.97,21,4,0,0.00
2013-3-8,42.0,33.9,30.0,33.0,29.3,25.0,97,85,55,30.12,29.91,14,2,0,0.00
2013-3-9,42.0,35.7,27.0,32.0,27.2,24.0,94,72,58,30.35,30.12,18,2,0,0.00
2013-3-10,40.0,33.5,24.0,33.0,29.4,23.0,94,85,71,30.40,30.31,5,1,0,0.00
2013-3-11,48.0,40.9,36.0,40.0,35.9,32.0,92,83,71,30.32,30.15,10,3,0,0.00
2013-3-12,51.0,43.8,40.0,46.0,42.4,38.0,97,95,92,30.16,29.72,7,2,0,0.00
2013-3-13,53.0,45.1,36.0,50.0,33.4,21.0,97,66,36,29.76,29.67,9,2,0,0.00
2013-3-14,36.0,32.5,24.0,26.0,17.5,7.0,71,54,42,29.80,29.68,12,3,0,0.00
2013-3-15,40.0,29.6,20.0,28.0,12.2,5.0,74,49,27,29.84,29.61,13,4,0,0.00
2013-3-16,38.0,33.3,28.0,27.0,16.3,9.0,73,51,29,29.87,29.63,10,2,0,0.00
2013-3-17,36.0,30.5,24.0,16.0,10.6,3.0,69,44,28,30.31,29.87,12,2,0,0.00
2013-3-18,34.0,27.1,18.0,26.0,11.9,1.0,86,53,37,30.45,30.26,10,2,0,0.00
2013-3-19,35.0,32.4,27.0,34.0,31.2,25.0,96,95,89,30.26,29.57,13,2,0,0.00
2013-3-20,38.0,31.2,25.0,25.0,22.5,19.0,93,72,46,29.80,29.65,15,3,0,0.00
2013-3-21,35.0,30.4,26.0,29.0,22.9,18.0,93,74,54,29.80,29.60,3,0,0,0.00
2013-3-22,41.0,34.0,29.0,28.0,21.4,17.0,92,61,39,29.71,29.58,11,2,0,0.00
2013-3-23,44.0,35.8,28.0,23.0,20.3,18.0,75,55,37,29.74,29.60,10,4,0,0.00
2013-3-24,47.0,37.3,31.0,31.0,25.2,21.0,87,63,40,29.79,29.72,18,2,0,0.00
2013-3-25,42.0,36.5,30.0,36.0,31.2,26.0,92,81,72,29.77,29.52,10,2,0,0.00
2013-3-26,49.0,38.8,32.0,34.0,26.8,20.0,92,65,33,29.75,29.52,14,2,0,0.00
2013-3-27,54.0,42.3,31.0,35.0,26.0,22.0,80,54,33,29.85,29.71,9,2,0,0.00
2013-3-28,47.0,42.0,37.0,35.0,33.5,29.0,93,73,50,29.99,29.84,11,2,0,0.00
2013-3-29,56.0,44.7,35.0,38.0,33.5,30.0,82,66,41,30.02,29.95,7,1,0,0.00
2013-3-30,52.0,43.1,32.0,36.0,31.8,28.0,88,65,41,30.08,30.00,10,1,0,0.00
2013-3-31,56.0,41.4,27.0,39.0,30.0,-99.9,94,70,37,30.11,29.78,14,2,0,0.00